sensor_id;sensor_type;location;lat;lon;timestamp;temperature;humidity
49549;DHT22;35450;44.518;7.466;2023-03-16T00:01:49;9.30;53.90
49549;DHT22;35450;44.518;7.466;2023-03-16T00:04:53;9.50;54.50
49549;DHT22;35450;44.518;7.466;2023-03-16T00:07:57;9.50;55.20
49549;DHT22;35450;44.518;7.466;2023-03-16T00:11:02;9.40;56.70
49549;DHT22;35450;44.518;7.466;2023-03-16T00:14:06;9.40;56.60
49549;DHT22;35450;44.518;7.466;2023-03-16T00:17:11;9.30;56.10
49549;DHT22;35450;44.518;7.466;2023-03-16T00:20:21;9.20;56.80
49549;DHT22;35450;44.518;7.466;2023-03-16T00:23:25;9.10;56.50
49549;DHT22;35450;44.518;7.466;2023-03-16T00:26:29;9.10;55.80
49549;DHT22;35450;44.518;7.466;2023-03-16T00:29:34;8.90;56.20
49549;DHT22;35450;44.518;7.466;2023-03-16T00:32:38;8.80;56.20
49549;DHT22;35450;44.518;7.466;2023-03-16T00:35:47;9.00;56.20
49549;DHT22;35450;44.518;7.466;2023-03-16T00:38:54;8.90;56.30
49549;DHT22;35450;44.518;7.466;2023-03-16T00:41:58;8.90;56.20
49549;DHT22;35450;44.518;7.466;2023-03-16T00:45:02;8.80;55.80
49549;DHT22;35450;44.518;7.466;2023-03-16T00:48:07;8.90;56.50
49549;DHT22;35450;44.518;7.466;2023-03-16T00:51:14;8.70;55.90
49549;DHT22;35450;44.518;7.466;2023-03-16T00:54:18;8.60;56.00
49549;DHT22;35450;44.518;7.466;2023-03-16T00:57:24;8.70;54.90
49549;DHT22;35450;44.518;7.466;2023-03-16T01:00:28;8.80;55.00
49549;DHT22;35450;44.518;7.466;2023-03-16T01:03:33;8.80;55.20
49549;DHT22;35450;44.518;7.466;2023-03-16T01:06:37;8.90;55.10
49549;DHT22;35450;44.518;7.466;2023-03-16T01:09:42;8.90;55.10
49549;DHT22;35450;44.518;7.466;2023-03-16T01:12:46;8.80;54.60
49549;DHT22;35450;44.518;7.466;2023-03-16T01:15:50;8.80;55.30
49549;DHT22;35450;44.518;7.466;2023-03-16T01:18:55;8.90;55.20
49549;DHT22;35450;44.518;7.466;2023-03-16T01:22:01;8.70;54.40
49549;DHT22;35450;44.518;7.466;2023-03-16T01:25:06;8.70;54.80
49549;DHT22;35450;44.518;7.466;2023-03-16T01:28:10;8.70;55.30
49549;DHT22;35450;44.518;7.466;2023-03-16T01:31:16;8.60;55.30
49549;DHT22;35450;44.518;7.466;2023-03-16T01:34:20;8.60;55.40
49549;DHT22;35450;44.518;7.466;2023-03-16T01:37:24;8.60;54.90
49549;DHT22;35450;44.518;7.466;2023-03-16T01:40:37;8.60;55.30
49549;DHT22;35450;44.518;7.466;2023-03-16T01:43:41;8.60;54.80
49549;DHT22;35450;44.518;7.466;2023-03-16T01:46:46;8.60;54.90
49549;DHT22;35450;44.518;7.466;2023-03-16T01:49:52;8.60;55.00
49549;DHT22;35450;44.518;7.466;2023-03-16T01:52:59;8.60;55.10
49549;DHT22;35450;44.518;7.466;2023-03-16T01:56:06;8.50;55.00
49549;DHT22;35450;44.518;7.466;2023-03-16T01:59:15;8.50;55.20
49549;DHT22;35450;44.518;7.466;2023-03-16T02:02:26;8.40;54.70
49549;DHT22;35450;44.518;7.466;2023-03-16T02:05:49;8.50;54.30
49549;DHT22;35450;44.518;7.466;2023-03-16T02:08:57;8.50;55.40
49549;DHT22;35450;44.518;7.466;2023-03-16T02:12:02;8.60;55.60
49549;DHT22;35450;44.518;7.466;2023-03-16T02:15:09;8.60;54.40
49549;DHT22;35450;44.518;7.466;2023-03-16T02:18:14;8.50;54.90
49549;DHT22;35450;44.518;7.466;2023-03-16T02:21:34;8.60;55.80
49549;DHT22;35450;44.518;7.466;2023-03-16T02:24:41;8.40;55.00
49549;DHT22;35450;44.518;7.466;2023-03-16T02:31:04;8.40;55.30
49549;DHT22;35450;44.518;7.466;2023-03-16T02:34:13;8.40;55.20
49549;DHT22;35450;44.518;7.466;2023-03-16T02:37:18;8.30;55.40
49549;DHT22;35450;44.518;7.466;2023-03-16T02:40:25;8.30;55.50
49549;DHT22;35450;44.518;7.466;2023-03-16T02:43:33;8.50;56.60
49549;DHT22;35450;44.518;7.466;2023-03-16T02:46:47;8.40;55.60
49549;DHT22;35450;44.518;7.466;2023-03-16T02:49:52;8.30;56.10
49549;DHT22;35450;44.518;7.466;2023-03-16T02:52:56;8.10;56.80
49549;DHT22;35450;44.518;7.466;2023-03-16T02:55:59;8.00;56.80
49549;DHT22;35450;44.518;7.466;2023-03-16T02:59:08;8.10;56.60
49549;DHT22;35450;44.518;7.466;2023-03-16T03:02:13;8.10;56.80
49549;DHT22;35450;44.518;7.466;2023-03-16T03:05:17;8.10;56.20
49549;DHT22;35450;44.518;7.466;2023-03-16T03:08:21;8.10;55.90
49549;DHT22;35450;44.518;7.466;2023-03-16T03:11:27;8.10;56.10
49549;DHT22;35450;44.518;7.466;2023-03-16T03:14:30;8.10;56.20
49549;DHT22;35450;44.518;7.466;2023-03-16T03:17:34;8.20;56.40
49549;DHT22;35450;44.518;7.466;2023-03-16T03:20:40;8.10;56.60
49549;DHT22;35450;44.518;7.466;2023-03-16T03:23:44;8.20;56.80
49549;DHT22;35450;44.518;7.466;2023-03-16T03:26:50;8.20;57.80
49549;DHT22;35450;44.518;7.466;2023-03-16T03:29:57;8.10;58.50
49549;DHT22;35450;44.518;7.466;2023-03-16T03:33:01;8.10;59.60
49549;DHT22;35450;44.518;7.466;2023-03-16T03:36:06;7.90;60.10
49549;DHT22;35450;44.518;7.466;2023-03-16T03:39:13;7.90;60.50
49549;DHT22;35450;44.518;7.466;2023-03-16T03:42:17;7.90;60.80
49549;DHT22;35450;44.518;7.466;2023-03-16T03:45:21;7.90;61.00
49549;DHT22;35450;44.518;7.466;2023-03-16T03:48:26;7.80;61.50
49549;DHT22;35450;44.518;7.466;2023-03-16T03:51:31;7.90;61.50
49549;DHT22;35450;44.518;7.466;2023-03-16T03:54:40;7.80;61.70
49549;DHT22;35450;44.518;7.466;2023-03-16T03:57:50;7.80;61.30
49549;DHT22;35450;44.518;7.466;2023-03-16T04:00:54;7.80;60.60
49549;DHT22;35450;44.518;7.466;2023-03-16T04:03:58;7.80;60.20
49549;DHT22;35450;44.518;7.466;2023-03-16T04:07:02;7.80;60.60
49549;DHT22;35450;44.518;7.466;2023-03-16T04:10:07;7.70;61.00
49549;DHT22;35450;44.518;7.466;2023-03-16T04:13:15;7.70;60.90
49549;DHT22;35450;44.518;7.466;2023-03-16T04:16:20;7.50;60.20
49549;DHT22;35450;44.518;7.466;2023-03-16T04:19:28;7.70;60.50
49549;DHT22;35450;44.518;7.466;2023-03-16T04:22:33;7.80;60.40
49549;DHT22;35450;44.518;7.466;2023-03-16T04:25:40;7.80;60.20
49549;DHT22;35450;44.518;7.466;2023-03-16T04:28:46;7.70;60.80
49549;DHT22;35450;44.518;7.466;2023-03-16T04:31:53;7.80;60.70
49549;DHT22;35450;44.518;7.466;2023-03-16T04:34:59;7.80;60.70
49549;DHT22;35450;44.518;7.466;2023-03-16T04:38:17;7.70;60.50
49549;DHT22;35450;44.518;7.466;2023-03-16T04:41:33;7.60;60.80
49549;DHT22;35450;44.518;7.466;2023-03-16T04:44:45;7.60;61.20
49549;DHT22;35450;44.518;7.466;2023-03-16T04:47:51;7.70;60.40
49549;DHT22;35450;44.518;7.466;2023-03-16T04:50:55;7.80;60.40
49549;DHT22;35450;44.518;7.466;2023-03-16T04:54:00;7.80;60.20
49549;DHT22;35450;44.518;7.466;2023-03-16T04:57:10;7.80;60.60
49549;DHT22;35450;44.518;7.466;2023-03-16T05:00:19;7.70;60.80
49549;DHT22;35450;44.518;7.466;2023-03-16T05:03:44;7.70;61.00
49549;DHT22;35450;44.518;7.466;2023-03-16T05:06:49;7.70;61.80
49549;DHT22;35450;44.518;7.466;2023-03-16T05:09:56;7.70;62.40
49549;DHT22;35450;44.518;7.466;2023-03-16T05:13:00;7.70;62.50
49549;DHT22;35450;44.518;7.466;2023-03-16T05:16:04;7.60;63.00
49549;DHT22;35450;44.518;7.466;2023-03-16T05:19:12;7.50;63.10
49549;DHT22;35450;44.518;7.466;2023-03-16T05:22:17;7.40;63.00
49549;DHT22;35450;44.518;7.466;2023-03-16T05:25:39;7.40;63.60
49549;DHT22;35450;44.518;7.466;2023-03-16T05:28:45;7.20;64.50
49549;DHT22;35450;44.518;7.466;2023-03-16T05:31:52;7.20;64.30
49549;DHT22;35450;44.518;7.466;2023-03-16T05:34:59;7.20;64.80
49549;DHT22;35450;44.518;7.466;2023-03-16T05:38:05;7.10;63.60
49549;DHT22;35450;44.518;7.466;2023-03-16T05:41:14;7.20;64.90
49549;DHT22;35450;44.518;7.466;2023-03-16T05:44:32;7.30;64.60
49549;DHT22;35450;44.518;7.466;2023-03-16T05:47:55;7.00;64.80
49549;DHT22;35450;44.518;7.466;2023-03-16T05:50:59;7.10;63.80
49549;DHT22;35450;44.518;7.466;2023-03-16T05:54:06;7.20;63.00
49549;DHT22;35450;44.518;7.466;2023-03-16T05:57:19;7.20;63.50
49549;DHT22;35450;44.518;7.466;2023-03-16T06:00:26;7.20;63.50
49549;DHT22;35450;44.518;7.466;2023-03-16T06:03:43;7.20;64.00
49549;DHT22;35450;44.518;7.466;2023-03-16T06:06:52;7.20;64.50
49549;DHT22;35450;44.518;7.466;2023-03-16T06:09:59;7.20;64.50
49549;DHT22;35450;44.518;7.466;2023-03-16T06:13:04;7.10;63.30
49549;DHT22;35450;44.518;7.466;2023-03-16T06:16:08;7.30;63.10
49549;DHT22;35450;44.518;7.466;2023-03-16T06:19:15;7.40;62.90
49549;DHT22;35450;44.518;7.466;2023-03-16T06:22:19;7.40;62.50
49549;DHT22;35450;44.518;7.466;2023-03-16T06:25:24;7.50;62.10
49549;DHT22;35450;44.518;7.466;2023-03-16T06:28:29;7.60;63.10
49549;DHT22;35450;44.518;7.466;2023-03-16T06:31:34;7.60;63.00
49549;DHT22;35450;44.518;7.466;2023-03-16T06:34:39;7.40;62.10
49549;DHT22;35450;44.518;7.466;2023-03-16T06:37:44;7.50;63.40
49549;DHT22;35450;44.518;7.466;2023-03-16T06:41:01;7.60;64.10
49549;DHT22;35450;44.518;7.466;2023-03-16T06:44:07;7.50;63.30
49549;DHT22;35450;44.518;7.466;2023-03-16T06:47:16;7.50;65.20
49549;DHT22;35450;44.518;7.466;2023-03-16T06:50:20;7.60;64.50
49549;DHT22;35450;44.518;7.466;2023-03-16T06:53:25;7.70;64.40
49549;DHT22;35450;44.518;7.466;2023-03-16T06:56:30;7.80;64.40
49549;DHT22;35450;44.518;7.466;2023-03-16T06:59:34;7.90;64.00
49549;DHT22;35450;44.518;7.466;2023-03-16T07:02:39;8.00;63.10
49549;DHT22;35450;44.518;7.466;2023-03-16T07:05:45;8.00;62.80
49549;DHT22;35450;44.518;7.466;2023-03-16T07:08:50;8.00;61.60
49549;DHT22;35450;44.518;7.466;2023-03-16T07:11:55;8.10;61.40
49549;DHT22;35450;44.518;7.466;2023-03-16T07:14:59;8.30;61.60
49549;DHT22;35450;44.518;7.466;2023-03-16T07:18:03;8.40;59.60
49549;DHT22;35450;44.518;7.466;2023-03-16T07:21:09;8.40;58.20
49549;DHT22;35450;44.518;7.466;2023-03-16T07:24:15;8.50;57.70
49549;DHT22;35450;44.518;7.466;2023-03-16T07:27:19;8.60;57.50
49549;DHT22;35450;44.518;7.466;2023-03-16T07:30:24;8.60;58.00
49549;DHT22;35450;44.518;7.466;2023-03-16T07:33:29;8.60;58.00
49549;DHT22;35450;44.518;7.466;2023-03-16T07:36:35;8.70;58.80
49549;DHT22;35450;44.518;7.466;2023-03-16T07:39:41;8.80;60.30
49549;DHT22;35450;44.518;7.466;2023-03-16T07:42:54;8.80;61.30
49549;DHT22;35450;44.518;7.466;2023-03-16T07:46:11;8.90;61.70
49549;DHT22;35450;44.518;7.466;2023-03-16T07:49:16;8.90;61.90
49549;DHT22;35450;44.518;7.466;2023-03-16T07:52:22;9.00;61.90
49549;DHT22;35450;44.518;7.466;2023-03-16T07:55:27;9.00;61.00
49549;DHT22;35450;44.518;7.466;2023-03-16T07:58:32;9.10;60.90
49549;DHT22;35450;44.518;7.466;2023-03-16T08:01:36;9.10;60.60
49549;DHT22;35450;44.518;7.466;2023-03-16T08:04:41;9.10;60.90
49549;DHT22;35450;44.518;7.466;2023-03-16T08:07:45;9.20;60.80
49549;DHT22;35450;44.518;7.466;2023-03-16T08:10:53;9.20;60.60
49549;DHT22;35450;44.518;7.466;2023-03-16T08:14:01;9.20;59.70
49549;DHT22;35450;44.518;7.466;2023-03-16T08:17:24;9.30;59.80
49549;DHT22;35450;44.518;7.466;2023-03-16T08:20:29;9.30;60.10
49549;DHT22;35450;44.518;7.466;2023-03-16T08:23:33;9.40;59.40
49549;DHT22;35450;44.518;7.466;2023-03-16T08:26:38;9.40;58.70
49549;DHT22;35450;44.518;7.466;2023-03-16T08:29:43;9.40;58.80
49549;DHT22;35450;44.518;7.466;2023-03-16T08:32:52;9.50;59.20
49549;DHT22;35450;44.518;7.466;2023-03-16T08:35:56;9.60;59.50
49549;DHT22;35450;44.518;7.466;2023-03-16T08:39:02;9.60;59.20
49549;DHT22;35450;44.518;7.466;2023-03-16T08:42:09;9.70;58.60
49549;DHT22;35450;44.518;7.466;2023-03-16T08:45:23;9.70;58.40
49549;DHT22;35450;44.518;7.466;2023-03-16T08:48:27;9.70;58.80
49549;DHT22;35450;44.518;7.466;2023-03-16T08:51:32;9.70;57.80
49549;DHT22;35450;44.518;7.466;2023-03-16T08:54:37;9.90;57.50
49549;DHT22;35450;44.518;7.466;2023-03-16T08:57:42;9.80;57.90
49549;DHT22;35450;44.518;7.466;2023-03-16T09:00:47;10.00;59.10
49549;DHT22;35450;44.518;7.466;2023-03-16T09:03:52;10.00;59.70
49549;DHT22;35450;44.518;7.466;2023-03-16T09:06:56;10.10;57.10
49549;DHT22;35450;44.518;7.466;2023-03-16T09:10:01;10.10;56.90
49549;DHT22;35450;44.518;7.466;2023-03-16T09:13:08;10.10;57.70
49549;DHT22;35450;44.518;7.466;2023-03-16T09:16:14;10.10;56.60
49549;DHT22;35450;44.518;7.466;2023-03-16T09:19:18;10.20;56.50
49549;DHT22;35450;44.518;7.466;2023-03-16T09:22:22;10.20;56.40
49549;DHT22;35450;44.518;7.466;2023-03-16T09:25:27;10.10;56.30
49549;DHT22;35450;44.518;7.466;2023-03-16T09:28:32;10.10;56.90
49549;DHT22;35450;44.518;7.466;2023-03-16T09:31:36;10.10;57.90
49549;DHT22;35450;44.518;7.466;2023-03-16T09:34:41;10.00;58.50
49549;DHT22;35450;44.518;7.466;2023-03-16T09:37:44;10.00;58.40
49549;DHT22;35450;44.518;7.466;2023-03-16T09:41:41;10.00;58.20
49549;DHT22;35450;44.518;7.466;2023-03-16T09:47:36;10.10;58.60
49549;DHT22;35450;44.518;7.466;2023-03-16T09:50:41;10.10;58.90
49549;DHT22;35450;44.518;7.466;2023-03-16T09:53:47;10.10;59.20
49549;DHT22;35450;44.518;7.466;2023-03-16T09:56:54;10.10;59.90
49549;DHT22;35450;44.518;7.466;2023-03-16T10:00:14;10.20;58.90
49549;DHT22;35450;44.518;7.466;2023-03-16T10:07:00;10.30;57.20
49549;DHT22;35450;44.518;7.466;2023-03-16T10:13:35;10.40;56.80
49549;DHT22;35450;44.518;7.466;2023-03-16T10:19:54;10.50;56.40
49549;DHT22;35450;44.518;7.466;2023-03-16T10:23:18;10.50;56.10
49549;DHT22;35450;44.518;7.466;2023-03-16T10:26:30;10.60;56.80
49549;DHT22;35450;44.518;7.466;2023-03-16T10:29:36;10.60;56.00
49549;DHT22;35450;44.518;7.466;2023-03-16T10:32:41;10.60;56.40
49549;DHT22;35450;44.518;7.466;2023-03-16T10:38:53;10.70;55.70
49549;DHT22;35450;44.518;7.466;2023-03-16T10:41:58;10.70;55.60
49549;DHT22;35450;44.518;7.466;2023-03-16T10:45:02;10.80;56.10
49549;DHT22;35450;44.518;7.466;2023-03-16T10:48:17;10.80;54.70
49549;DHT22;35450;44.518;7.466;2023-03-16T10:51:28;10.80;55.50
49549;DHT22;35450;44.518;7.466;2023-03-16T10:54:35;10.90;55.30
49549;DHT22;35450;44.518;7.466;2023-03-16T10:57:49;10.90;55.10
49549;DHT22;35450;44.518;7.466;2023-03-16T11:00:54;10.90;56.30
49549;DHT22;35450;44.518;7.466;2023-03-16T11:03:58;11.00;57.70
49549;DHT22;35450;44.518;7.466;2023-03-16T11:07:06;11.10;56.30
49549;DHT22;35450;44.518;7.466;2023-03-16T11:13:35;11.10;57.80
49549;DHT22;35450;44.518;7.466;2023-03-16T11:20:15;11.10;58.40
49549;DHT22;35450;44.518;7.466;2023-03-16T11:23:28;11.20;58.00
49549;DHT22;35450;44.518;7.466;2023-03-16T11:26:35;11.20;57.60
49549;DHT22;35450;44.518;7.466;2023-03-16T11:29:55;11.20;58.80
49549;DHT22;35450;44.518;7.466;2023-03-16T11:33:02;11.30;58.70
49549;DHT22;35450;44.518;7.466;2023-03-16T11:43:54;11.30;58.20
49549;DHT22;35450;44.518;7.466;2023-03-16T11:47:16;11.30;57.60
49549;DHT22;35450;44.518;7.466;2023-03-16T11:50:55;11.30;59.10
49549;DHT22;35450;44.518;7.466;2023-03-16T11:54:12;11.40;58.30
49549;DHT22;35450;44.518;7.466;2023-03-16T12:20:21;11.60;53.70
49549;DHT22;35450;44.518;7.466;2023-03-16T12:23:50;11.60;55.00
49549;DHT22;35450;44.518;7.466;2023-03-16T12:26:56;11.60;56.20
49549;DHT22;35450;44.518;7.466;2023-03-16T12:33:30;11.70;53.30
49549;DHT22;35450;44.518;7.466;2023-03-16T12:40:32;11.70;52.50
49549;DHT22;35450;44.518;7.466;2023-03-16T12:44:05;11.80;52.80
49549;DHT22;35450;44.518;7.466;2023-03-16T12:47:22;11.80;53.20
49549;DHT22;35450;44.518;7.466;2023-03-16T12:50:29;11.90;52.60
49549;DHT22;35450;44.518;7.466;2023-03-16T12:57:04;11.90;53.30
49549;DHT22;35450;44.518;7.466;2023-03-16T13:00:10;11.70;54.00
49549;DHT22;35450;44.518;7.466;2023-03-16T13:03:19;11.70;52.50
49549;DHT22;35450;44.518;7.466;2023-03-16T13:06:24;11.80;52.30
49549;DHT22;35450;44.518;7.466;2023-03-16T13:09:43;12.00;52.70
49549;DHT22;35450;44.518;7.466;2023-03-16T13:12:48;12.10;52.80
49549;DHT22;35450;44.518;7.466;2023-03-16T13:16:06;12.20;53.50
49549;DHT22;35450;44.518;7.466;2023-03-16T13:19:25;12.20;55.30
49549;DHT22;35450;44.518;7.466;2023-03-16T13:22:41;12.30;55.30
49549;DHT22;35450;44.518;7.466;2023-03-16T13:26:16;12.40;55.00
49549;DHT22;35450;44.518;7.466;2023-03-16T13:29:24;12.40;54.70
49549;DHT22;35450;44.518;7.466;2023-03-16T13:32:32;12.40;56.50
49549;DHT22;35450;44.518;7.466;2023-03-16T13:35:38;12.40;54.00
49549;DHT22;35450;44.518;7.466;2023-03-16T13:42:31;12.40;51.50
49549;DHT22;35450;44.518;7.466;2023-03-16T13:45:37;12.40;51.80
49549;DHT22;35450;44.518;7.466;2023-03-16T13:48:41;12.40;53.00
49549;DHT22;35450;44.518;7.466;2023-03-16T13:51:47;12.50;52.80
49549;DHT22;35450;44.518;7.466;2023-03-16T13:54:52;12.50;53.60
49549;DHT22;35450;44.518;7.466;2023-03-16T13:57:56;12.50;53.80
49549;DHT22;35450;44.518;7.466;2023-03-16T14:01:02;12.60;52.40
49549;DHT22;35450;44.518;7.466;2023-03-16T14:04:11;12.60;52.60
49549;DHT22;35450;44.518;7.466;2023-03-16T14:07:19;12.50;52.00
49549;DHT22;35450;44.518;7.466;2023-03-16T14:10:27;12.50;54.40
49549;DHT22;35450;44.518;7.466;2023-03-16T14:13:33;12.40;54.70
49549;DHT22;35450;44.518;7.466;2023-03-16T14:16:41;12.50;53.40
49549;DHT22;35450;44.518;7.466;2023-03-16T14:19:57;12.50;53.50
49549;DHT22;35450;44.518;7.466;2023-03-16T14:23:02;12.40;54.60
49549;DHT22;35450;44.518;7.466;2023-03-16T14:26:11;12.50;56.00
49549;DHT22;35450;44.518;7.466;2023-03-16T14:29:26;12.60;55.30
49549;DHT22;35450;44.518;7.466;2023-03-16T14:32:33;12.70;53.30
49549;DHT22;35450;44.518;7.466;2023-03-16T14:35:42;12.80;52.20
49549;DHT22;35450;44.518;7.466;2023-03-16T14:38:47;12.90;51.90
49549;DHT22;35450;44.518;7.466;2023-03-16T14:41:51;13.00;51.80
49549;DHT22;35450;44.518;7.466;2023-03-16T14:45:11;13.10;53.80
49549;DHT22;35450;44.518;7.466;2023-03-16T14:48:19;13.10;53.80
49549;DHT22;35450;44.518;7.466;2023-03-16T14:51:24;13.10;53.70
49549;DHT22;35450;44.518;7.466;2023-03-16T14:54:29;13.10;53.90
49549;DHT22;35450;44.518;7.466;2023-03-16T14:57:33;12.90;53.10
49549;DHT22;35450;44.518;7.466;2023-03-16T15:00:38;13.00;54.80
49549;DHT22;35450;44.518;7.466;2023-03-16T15:03:44;13.10;53.50
49549;DHT22;35450;44.518;7.466;2023-03-16T15:06:48;13.30;53.30
49549;DHT22;35450;44.518;7.466;2023-03-16T15:09:55;13.40;54.90
49549;DHT22;35450;44.518;7.466;2023-03-16T15:13:06;13.50;53.80
49549;DHT22;35450;44.518;7.466;2023-03-16T15:16:20;13.50;52.70
49549;DHT22;35450;44.518;7.466;2023-03-16T15:19:25;13.30;53.70
49549;DHT22;35450;44.518;7.466;2023-03-16T15:22:35;13.20;54.20
49549;DHT22;35450;44.518;7.466;2023-03-16T15:25:42;13.30;54.20
49549;DHT22;35450;44.518;7.466;2023-03-16T15:28:46;13.40;54.50
49549;DHT22;35450;44.518;7.466;2023-03-16T15:31:50;13.60;52.50
49549;DHT22;35450;44.518;7.466;2023-03-16T15:34:54;13.80;52.00
49549;DHT22;35450;44.518;7.466;2023-03-16T15:37:59;13.90;50.90
49549;DHT22;35450;44.518;7.466;2023-03-16T15:41:11;13.90;51.60
49549;DHT22;35450;44.518;7.466;2023-03-16T15:44:15;14.00;53.00
49549;DHT22;35450;44.518;7.466;2023-03-16T15:47:20;14.10;53.10
49549;DHT22;35450;44.518;7.466;2023-03-16T15:50:24;14.10;52.20
49549;DHT22;35450;44.518;7.466;2023-03-16T15:53:37;13.90;53.50
49549;DHT22;35450;44.518;7.466;2023-03-16T15:56:43;13.70;52.00
49549;DHT22;35450;44.518;7.466;2023-03-16T15:59:49;13.70;54.60
49549;DHT22;35450;44.518;7.466;2023-03-16T16:02:54;13.60;54.30
49549;DHT22;35450;44.518;7.466;2023-03-16T16:05:59;13.70;53.20
49549;DHT22;35450;44.518;7.466;2023-03-16T16:09:04;13.80;53.00
49549;DHT22;35450;44.518;7.466;2023-03-16T16:12:13;13.90;52.70
49549;DHT22;35450;44.518;7.466;2023-03-16T16:15:23;13.90;52.90
49549;DHT22;35450;44.518;7.466;2023-03-16T16:18:30;13.80;53.40
49549;DHT22;35450;44.518;7.466;2023-03-16T16:21:35;13.70;54.70
49549;DHT22;35450;44.518;7.466;2023-03-16T16:24:39;13.70;54.90
49549;DHT22;35450;44.518;7.466;2023-03-16T16:27:44;13.90;54.30
49549;DHT22;35450;44.518;7.466;2023-03-16T16:30:49;13.90;53.90
49549;DHT22;35450;44.518;7.466;2023-03-16T16:33:53;14.00;53.80
49549;DHT22;35450;44.518;7.466;2023-03-16T16:36:58;14.10;54.00
49549;DHT22;35450;44.518;7.466;2023-03-16T16:40:02;14.10;53.80
49549;DHT22;35450;44.518;7.466;2023-03-16T16:43:08;14.10;54.00
49549;DHT22;35450;44.518;7.466;2023-03-16T16:46:16;14.00;54.20
49549;DHT22;35450;44.518;7.466;2023-03-16T16:49:24;13.90;54.50
49549;DHT22;35450;44.518;7.466;2023-03-16T16:52:29;13.80;54.60
49549;DHT22;35450;44.518;7.466;2023-03-16T16:55:33;13.70;55.10
49549;DHT22;35450;44.518;7.466;2023-03-16T16:58:37;13.60;55.50
49549;DHT22;35450;44.518;7.466;2023-03-16T17:01:42;13.40;58.30
49549;DHT22;35450;44.518;7.466;2023-03-16T17:04:47;13.20;59.90
49549;DHT22;35450;44.518;7.466;2023-03-16T17:07:53;13.00;61.30
49549;DHT22;35450;44.518;7.466;2023-03-16T17:10:58;12.80;60.40
49549;DHT22;35450;44.518;7.466;2023-03-16T17:14:04;12.70;59.70
49549;DHT22;35450;44.518;7.466;2023-03-16T17:17:13;12.80;59.40
49549;DHT22;35450;44.518;7.466;2023-03-16T17:20:21;12.80;59.20
49549;DHT22;35450;44.518;7.466;2023-03-16T17:23:31;12.90;59.40
49549;DHT22;35450;44.518;7.466;2023-03-16T17:26:41;12.90;59.30
49549;DHT22;35450;44.518;7.466;2023-03-16T17:29:46;12.80;59.00
49549;DHT22;35450;44.518;7.466;2023-03-16T17:32:51;12.70;60.40
49549;DHT22;35450;44.518;7.466;2023-03-16T17:35:56;12.70;60.10
49549;DHT22;35450;44.518;7.466;2023-03-16T17:39:00;12.70;62.50
49549;DHT22;35450;44.518;7.466;2023-03-16T17:42:11;12.70;62.90
49549;DHT22;35450;44.518;7.466;2023-03-16T17:45:28;12.60;62.80
49549;DHT22;35450;44.518;7.466;2023-03-16T17:48:32;12.50;61.70
49549;DHT22;35450;44.518;7.466;2023-03-16T17:51:36;12.50;61.40
49549;DHT22;35450;44.518;7.466;2023-03-16T17:54:41;12.40;61.40
49549;DHT22;35450;44.518;7.466;2023-03-16T17:57:47;12.40;60.90
49549;DHT22;35450;44.518;7.466;2023-03-16T18:00:53;12.30;60.90
49549;DHT22;35450;44.518;7.466;2023-03-16T18:03:57;12.20;61.70
49549;DHT22;35450;44.518;7.466;2023-03-16T18:07:01;12.20;61.90
49549;DHT22;35450;44.518;7.466;2023-03-16T18:10:08;12.10;61.80
49549;DHT22;35450;44.518;7.466;2023-03-16T18:13:20;12.00;61.70
49549;DHT22;35450;44.518;7.466;2023-03-16T18:16:25;12.00;61.40
49549;DHT22;35450;44.518;7.466;2023-03-16T18:19:33;11.90;61.70
49549;DHT22;35450;44.518;7.466;2023-03-16T18:22:38;11.80;61.70
49549;DHT22;35450;44.518;7.466;2023-03-16T18:25:42;11.80;61.50
49549;DHT22;35450;44.518;7.466;2023-03-16T18:28:46;11.80;61.50
49549;DHT22;35450;44.518;7.466;2023-03-16T18:31:52;11.80;61.70
49549;DHT22;35450;44.518;7.466;2023-03-16T18:34:57;11.70;61.60
49549;DHT22;35450;44.518;7.466;2023-03-16T18:38:02;11.70;61.60
49549;DHT22;35450;44.518;7.466;2023-03-16T18:44:22;11.60;61.60
49549;DHT22;35450;44.518;7.466;2023-03-16T18:47:28;11.50;61.80
49549;DHT22;35450;44.518;7.466;2023-03-16T18:50:34;11.50;61.90
49549;DHT22;35450;44.518;7.466;2023-03-16T18:53:38;11.40;62.10
49549;DHT22;35450;44.518;7.466;2023-03-16T18:56:42;11.30;62.20
49549;DHT22;35450;44.518;7.466;2023-03-16T18:59:47;11.20;62.30
49549;DHT22;35450;44.518;7.466;2023-03-16T19:02:57;11.20;62.40
49549;DHT22;35450;44.518;7.466;2023-03-16T19:06:02;11.30;62.50
49549;DHT22;35450;44.518;7.466;2023-03-16T19:09:23;11.30;62.60
49549;DHT22;35450;44.518;7.466;2023-03-16T19:12:27;11.20;62.10
49549;DHT22;35450;44.518;7.466;2023-03-16T19:15:31;11.10;62.50
49549;DHT22;35450;44.518;7.466;2023-03-16T19:18:38;11.20;62.60
49549;DHT22;35450;44.518;7.466;2023-03-16T19:21:45;11.20;62.70
49549;DHT22;35450;44.518;7.466;2023-03-16T19:24:53;11.10;62.70
49549;DHT22;35450;44.518;7.466;2023-03-16T19:27:58;11.00;62.70
49549;DHT22;35450;44.518;7.466;2023-03-16T19:31:13;11.00;63.20
49549;DHT22;35450;44.518;7.466;2023-03-16T19:34:18;10.90;63.20
49549;DHT22;35450;44.518;7.466;2023-03-16T19:37:21;10.80;63.40
49549;DHT22;35450;44.518;7.466;2023-03-16T19:40:27;10.80;63.00
49549;DHT22;35450;44.518;7.466;2023-03-16T19:43:31;10.80;63.00
49549;DHT22;35450;44.518;7.466;2023-03-16T19:46:35;10.80;63.10
49549;DHT22;35450;44.518;7.466;2023-03-16T19:49:39;10.80;63.20
49549;DHT22;35450;44.518;7.466;2023-03-16T19:52:43;10.80;63.40
49549;DHT22;35450;44.518;7.466;2023-03-16T19:55:49;10.70;62.70
49549;DHT22;35450;44.518;7.466;2023-03-16T19:58:54;10.70;62.90
49549;DHT22;35450;44.518;7.466;2023-03-16T20:01:59;10.70;63.10
49549;DHT22;35450;44.518;7.466;2023-03-16T20:05:04;10.60;63.40
49549;DHT22;35450;44.518;7.466;2023-03-16T20:11:28;10.60;62.90
49549;DHT22;35450;44.518;7.466;2023-03-16T20:14:32;10.70;62.70
49549;DHT22;35450;44.518;7.466;2023-03-16T20:17:36;10.60;62.60
49549;DHT22;35450;44.518;7.466;2023-03-16T20:20:42;10.60;62.90
49549;DHT22;35450;44.518;7.466;2023-03-16T20:23:46;10.60;62.80
49549;DHT22;35450;44.518;7.466;2023-03-16T20:26:51;10.60;62.70
49549;DHT22;35450;44.518;7.466;2023-03-16T20:29:57;10.60;62.70
49549;DHT22;35450;44.518;7.466;2023-03-16T20:33:01;10.50;62.90
49549;DHT22;35450;44.518;7.466;2023-03-16T20:36:11;10.40;62.60
49549;DHT22;35450;44.518;7.466;2023-03-16T20:39:15;10.50;63.00
49549;DHT22;35450;44.518;7.466;2023-03-16T20:42:26;10.30;63.30
49549;DHT22;35450;44.518;7.466;2023-03-16T20:45:33;10.20;63.70
49549;DHT22;35450;44.518;7.466;2023-03-16T20:48:37;10.20;63.70
49549;DHT22;35450;44.518;7.466;2023-03-16T20:51:41;10.20;63.50
49549;DHT22;35450;44.518;7.466;2023-03-16T20:54:45;10.30;63.40
49549;DHT22;35450;44.518;7.466;2023-03-16T20:57:51;10.20;63.60
49549;DHT22;35450;44.518;7.466;2023-03-16T21:00:55;10.10;63.90
49549;DHT22;35450;44.518;7.466;2023-03-16T21:04:00;10.20;63.90
49549;DHT22;35450;44.518;7.466;2023-03-16T21:07:05;10.10;64.20
49549;DHT22;35450;44.518;7.466;2023-03-16T21:10:14;10.10;64.10